sensor_id;sensor_type;location;lat;lon;timestamp;pressure;altitude;pressure_sealevel;temperature;humidity
42247;BME280;27913;42.722;23.268;2023-05-19T05:08:26;95228.00;;;10.44;100.00
42247;BME280;27913;42.722;23.268;2023-05-19T05:10:52;95232.22;;;10.53;100.00
42247;BME280;27913;42.722;23.268;2023-05-19T05:13:20;95211.34;;;10.82;100.00
42247;BME280;27913;42.722;23.268;2023-05-19T05:15:46;95224.28;;;10.98;100.00
42247;BME280;27913;42.722;23.268;2023-05-19T05:18:13;95266.44;;;11.35;100.00
42247;BME280;27913;42.722;23.268;2023-05-19T05:20:40;95257.09;;;11.33;100.00
42247;BME280;27913;42.722;23.268;2023-05-19T05:23:06;95268.22;;;11.50;100.00
42247;BME280;27913;42.722;23.268;2023-05-19T05:25:34;95202.47;;;11.20;100.00
42247;BME280;27913;42.722;23.268;2023-05-19T05:28:00;95255.19;;;11.64;100.00
42247;BME280;27913;42.722;23.268;2023-05-19T05:30:29;95262.88;;;11.65;100.00
42247;BME280;27913;42.722;23.268;2023-05-19T05:32:55;95210.69;;;11.32;100.00
42247;BME280;27913;42.722;23.268;2023-05-19T05:35:22;95264.16;;;11.69;100.00
42247;BME280;27913;42.722;23.268;2023-05-19T05:37:48;95271.75;;;11.79;100.00
42247;BME280;27913;42.722;23.268;2023-05-19T05:40:14;95272.38;;;11.81;100.00
42247;BME280;27913;42.722;23.268;2023-05-19T05:42:39;95252.25;;;11.74;100.00
42247;BME280;27913;42.722;23.268;2023-05-19T05:45:05;95220.69;;;11.58;100.00
42247;BME280;27913;42.722;23.268;2023-05-19T05:47:31;95253.94;;;11.81;100.00
42247;BME280;27913;42.722;23.268;2023-05-19T05:49:57;95224.66;;;11.69;100.00
42247;BME280;27913;42.722;23.268;2023-05-19T05:52:28;95235.63;;;11.73;100.00
42247;BME280;27913;42.722;23.268;2023-05-19T05:54:54;95280.28;;;12.03;100.00
42247;BME280;27913;42.722;23.268;2023-05-19T05:57:20;95278.78;;;12.16;100.00
42247;BME280;27913;42.722;23.268;2023-05-19T05:59:46;95255.81;;;12.10;100.00
42247;BME280;27913;42.722;23.268;2023-05-19T06:02:11;95280.47;;;12.24;100.00
42247;BME280;27913;42.722;23.268;2023-05-19T06:04:37;95271.69;;;12.16;100.00
42247;BME280;27913;42.722;23.268;2023-05-19T06:07:02;95244.31;;;11.95;100.00
42247;BME280;27913;42.722;23.268;2023-05-19T06:09:28;95221.28;;;11.82;100.00
42247;BME280;27913;42.722;23.268;2023-05-19T06:11:56;95208.41;;;11.88;100.00
42247;BME280;27913;42.722;23.268;2023-05-19T06:14:21;95279.00;;;12.43;100.00
42247;BME280;27913;42.722;23.268;2023-05-19T06:16:46;95284.91;;;12.45;100.00
42247;BME280;27913;42.722;23.268;2023-05-19T06:19:13;95265.81;;;12.43;100.00
42247;BME280;27913;42.722;23.268;2023-05-19T07:13:38;95271.75;;;14.06;86.63
42247;BME280;27913;42.722;23.268;2023-05-19T07:16:03;95231.88;;;13.80;86.56
42247;BME280;27913;42.722;23.268;2023-05-19T07:18:28;95299.22;;;14.18;87.21
42247;BME280;27913;42.722;23.268;2023-05-19T07:20:56;95232.09;;;13.79;86.03
42247;BME280;27913;42.722;23.268;2023-05-19T07:23:22;95303.31;;;14.21;85.72
42247;BME280;27913;42.722;23.268;2023-05-19T07:25:48;95270.34;;;14.03;85.67
42247;BME280;27913;42.722;23.268;2023-05-19T07:28:14;95310.84;;;14.37;85.89
42247;BME280;27913;42.722;23.268;2023-05-19T07:30:40;95317.16;;;14.50;85.85
42247;BME280;27913;42.722;23.268;2023-05-19T07:33:05;95230.69;;;14.10;85.47
42247;BME280;27913;42.722;23.268;2023-05-19T07:35:31;95245.94;;;14.35;84.36
42247;BME280;27913;42.722;23.268;2023-05-19T07:37:56;95285.59;;;14.76;85.28
42247;BME280;27913;42.722;23.268;2023-05-19T07:40:22;95244.72;;;14.51;82.86
42247;BME280;27913;42.722;23.268;2023-05-19T07:42:48;95247.75;;;14.61;81.83
42247;BME280;27913;42.722;23.268;2023-05-19T07:45:14;95279.28;;;14.83;82.73
42247;BME280;27913;42.722;23.268;2023-05-19T07:47:40;95310.81;;;15.05;82.85
42247;BME280;27913;42.722;23.268;2023-05-19T07:50:06;95312.22;;;15.08;82.68
42247;BME280;27913;42.722;23.268;2023-05-19T07:52:31;95307.75;;;15.08;82.11
42247;BME280;27913;42.722;23.268;2023-05-19T07:54:57;95312.22;;;15.01;83.02
42247;BME280;27913;42.722;23.268;2023-05-19T07:57:23;95310.59;;;15.07;82.89
42247;BME280;27913;42.722;23.268;2023-05-19T07:59:49;95310.38;;;15.15;82.67
42247;BME280;27913;42.722;23.268;2023-05-19T08:02:14;95291.25;;;15.06;81.55
42247;BME280;27913;42.722;23.268;2023-05-19T08:04:40;95300.81;;;15.14;81.00
42247;BME280;27913;42.722;23.268;2023-05-19T08:07:05;95210.28;;;14.58;81.51
42247;BME280;27913;42.722;23.268;2023-05-19T08:09:31;95254.19;;;15.00;81.25
42247;BME280;27913;42.722;23.268;2023-05-19T08:11:56;95306.41;;;15.38;80.84
42247;BME280;27913;42.722;23.268;2023-05-19T08:14:22;95276.91;;;15.28;81.39
42247;BME280;27913;42.722;23.268;2023-05-19T08:16:48;95298.59;;;15.57;81.85
42247;BME280;27913;42.722;23.268;2023-05-19T08:19:14;95285.75;;;15.54;81.28
42247;BME280;27913;42.722;23.268;2023-05-19T08:21:42;95277.63;;;15.49;80.36
42247;BME280;27913;42.722;23.268;2023-05-19T08:24:08;95302.75;;;15.78;80.59
42247;BME280;27913;42.722;23.268;2023-05-19T08:26:34;95300.28;;;15.84;80.19
42247;BME280;27913;42.722;23.268;2023-05-19T08:29:00;95284.84;;;15.74;79.64
42247;BME280;27913;42.722;23.268;2023-05-19T08:31:25;95208.63;;;15.30;78.48
42247;BME280;27913;42.722;23.268;2023-05-19T08:33:51;95288.69;;;15.85;78.93
42247;BME280;27913;42.722;23.268;2023-05-19T08:36:17;95245.19;;;15.60;79.73
42247;BME280;27913;42.722;23.268;2023-05-19T08:38:42;95267.69;;;15.76;79.27
42247;BME280;27913;42.722;23.268;2023-05-19T08:41:08;95297.97;;;15.94;78.38
42247;BME280;27913;42.722;23.268;2023-05-19T08:43:34;95254.38;;;15.83;78.35
42247;BME280;27913;42.722;23.268;2023-05-19T08:45:59;95298.28;;;16.18;77.20
42247;BME280;27913;42.722;23.268;2023-05-19T08:48:27;95239.09;;;15.85;75.72
42247;BME280;27913;42.722;23.268;2023-05-19T08:54:14;95239.63;;;16.01;74.90
42247;BME280;27913;42.722;23.268;2023-05-19T08:56:42;95294.00;;;16.42;75.35
42247;BME280;27913;42.722;23.268;2023-05-19T08:59:09;95289.28;;;16.45;76.14
42247;BME280;27913;42.722;23.268;2023-05-19T09:01:35;95292.06;;;16.57;75.75
42247;BME280;27913;42.722;23.268;2023-05-19T09:04:03;95296.03;;;16.66;75.01
42247;BME280;27913;42.722;23.268;2023-05-19T09:06:29;95206.81;;;16.21;75.37
42247;BME280;27913;42.722;23.268;2023-05-19T09:08:57;95284.06;;;16.82;74.92
42247;BME280;27913;42.722;23.268;2023-05-19T09:11:23;95279.28;;;16.91;74.04
42247;BME280;27913;42.722;23.268;2023-05-19T09:13:48;95242.84;;;16.80;73.50
42247;BME280;27913;42.722;23.268;2023-05-19T09:16:14;95266.28;;;17.01;73.03
42247;BME280;27913;42.722;23.268;2023-05-19T09:18:52;95262.47;;;17.16;73.42
42247;BME280;27913;42.722;23.268;2023-05-19T09:21:19;95237.38;;;17.12;73.80
42247;BME280;27913;42.722;23.268;2023-05-19T09:23:45;95237.72;;;17.34;73.18
42247;BME280;27913;42.722;23.268;2023-05-19T09:26:11;95237.72;;;17.53;72.99
42247;BME280;27913;42.722;23.268;2023-05-19T09:28:39;95214.06;;;17.45;72.37
42247;BME280;27913;42.722;23.268;2023-05-19T09:31:08;95252.97;;;17.89;69.86
42247;BME280;27913;42.722;23.268;2023-05-19T09:33:39;95263.75;;;18.06;70.02
42247;BME280;27913;42.722;23.268;2023-05-19T09:36:09;95240.06;;;18.04;68.76
42247;BME280;27913;42.722;23.268;2023-05-19T09:38:36;95240.59;;;18.06;69.75
42247;BME280;27913;42.722;23.268;2023-05-19T09:43:34;95251.00;;;18.27;67.29
42247;BME280;27913;42.722;23.268;2023-05-19T09:46:07;95191.19;;;17.86;66.03
42247;BME280;27913;42.722;23.268;2023-05-19T09:48:34;95199.09;;;18.05;66.65
42247;BME280;27913;42.722;23.268;2023-05-19T09:51:01;95200.03;;;18.11;64.45
42247;BME280;27913;42.722;23.268;2023-05-19T09:53:28;95219.75;;;18.22;63.91
42247;BME280;27913;42.722;23.268;2023-05-19T09:55:55;95202.84;;;18.28;63.28
42247;BME280;27913;42.722;23.268;2023-05-19T09:58:30;95243.34;;;18.90;62.91
42247;BME280;27913;42.722;23.268;2023-05-19T10:00:56;95227.91;;;19.04;63.28
42247;BME280;27913;42.722;23.268;2023-05-19T10:03:24;95220.25;;;19.08;63.44
42247;BME280;27913;42.722;23.268;2023-05-19T10:05:51;95202.13;;;18.81;62.83
42247;BME280;27913;42.722;23.268;2023-05-19T10:08:17;95224.25;;;18.81;63.93
42247;BME280;27913;42.722;23.268;2023-05-19T10:10:46;95155.13;;;18.51;63.73
42247;BME280;27913;42.722;23.268;2023-05-19T10:13:12;95234.03;;;19.17;64.34
42247;BME280;27913;42.722;23.268;2023-05-19T10:15:39;95233.31;;;19.34;63.63
42247;BME280;27913;42.722;23.268;2023-05-19T10:18:05;95217.94;;;19.24;62.56
42247;BME280;27913;42.722;23.268;2023-05-19T10:20:35;95225.47;;;19.15;59.24
42247;BME280;27913;42.722;23.268;2023-05-19T10:23:01;95189.00;;;18.91;56.55
42247;BME280;27913;42.722;23.268;2023-05-19T10:25:31;95203.97;;;18.80;57.35
42247;BME280;27913;42.722;23.268;2023-05-19T10:28:02;95174.47;;;18.58;59.97
42247;BME280;27913;42.722;23.268;2023-05-19T10:30:41;95187.19;;;18.68;59.06
42247;BME280;27913;42.722;23.268;2023-05-19T10:33:11;95145.88;;;18.53;58.91
42247;BME280;27913;42.722;23.268;2023-05-19T10:36:04;95207.84;;;19.14;57.48
42247;BME280;27913;42.722;23.268;2023-05-19T10:38:47;95169.97;;;19.00;59.43
42247;BME280;27913;42.722;23.268;2023-05-19T10:41:49;95230.28;;;19.30;59.71
42247;BME280;27913;42.722;23.268;2023-05-19T10:47:10;95195.69;;;19.06;56.80
42247;BME280;27913;42.722;23.268;2023-05-19T10:49:36;95225.25;;;19.46;58.19
42247;BME280;27913;42.722;23.268;2023-05-19T10:52:03;95218.16;;;19.51;57.28
42247;BME280;27913;42.722;23.268;2023-05-19T10:54:39;95182.34;;;19.47;56.95
42247;BME280;27913;42.722;23.268;2023-05-19T10:57:16;95210.22;;;19.86;56.29
42247;BME280;27913;42.722;23.268;2023-05-19T10:59:42;95214.31;;;20.06;55.83
42247;BME280;27913;42.722;23.268;2023-05-19T11:02:40;95173.09;;;19.84;57.83
42247;BME280;27913;42.722;23.268;2023-05-19T11:05:14;95188.56;;;19.99;53.82
42247;BME280;27913;42.722;23.268;2023-05-19T11:07:57;95193.84;;;20.11;53.29
42247;BME280;27913;42.722;23.268;2023-05-19T11:10:28;95215.13;;;20.23;53.64
42247;BME280;27913;42.722;23.268;2023-05-19T11:12:55;95187.44;;;20.12;54.32
42247;BME280;27913;42.722;23.268;2023-05-19T11:15:24;95143.25;;;19.53;55.30
42247;BME280;27913;42.722;23.268;2023-05-19T11:17:50;95201.59;;;19.96;55.17
42247;BME280;27913;42.722;23.268;2023-05-19T11:20:24;95204.69;;;20.22;55.40
42247;BME280;27913;42.722;23.268;2023-05-19T11:23:09;95185.97;;;20.39;53.18
42247;BME280;27913;42.722;23.268;2023-05-19T11:25:49;95197.94;;;20.54;52.34
42247;BME280;27913;42.722;23.268;2023-05-19T11:28:20;95170.13;;;20.32;51.61
42247;BME280;27913;42.722;23.268;2023-05-19T11:30:50;95201.19;;;20.56;52.82
42247;BME280;27913;42.722;23.268;2023-05-19T11:33:19;95186.69;;;20.51;50.09
42247;BME280;27913;42.722;23.268;2023-05-19T11:35:46;95178.69;;;20.74;49.14
42247;BME280;27913;42.722;23.268;2023-05-19T11:38:13;95196.59;;;21.13;46.99
42247;BME280;27913;42.722;23.268;2023-05-19T11:40:41;95164.19;;;21.09;47.48
42247;BME280;27913;42.722;23.268;2023-05-19T11:43:07;95166.53;;;20.83;46.36
42247;BME280;27913;42.722;23.268;2023-05-19T11:45:33;95178.09;;;20.89;48.12
42247;BME280;27913;42.722;23.268;2023-05-19T11:47:59;95185.72;;;20.97;47.86
42247;BME280;27913;42.722;23.268;2023-05-19T11:50:25;95194.16;;;20.89;49.09
42247;BME280;27913;42.722;23.268;2023-05-19T11:52:51;95191.13;;;21.03;50.20
42247;BME280;27913;42.722;23.268;2023-05-19T11:55:18;95173.44;;;20.79;47.86
42247;BME280;27913;42.722;23.268;2023-05-19T12:00:28;95173.94;;;20.76;46.11
42247;BME280;27913;42.722;23.268;2023-05-19T12:02:55;95189.19;;;20.58;48.08
42247;BME280;27913;42.722;23.268;2023-05-19T12:05:25;95145.44;;;20.42;49.42
42247;BME280;27913;42.722;23.268;2023-05-19T12:07:52;95202.81;;;20.79;49.44
42247;BME280;27913;42.722;23.268;2023-05-19T12:10:29;95174.34;;;20.68;48.90
42247;BME280;27913;42.722;23.268;2023-05-19T12:12:55;95188.44;;;20.63;50.93
42247;BME280;27913;42.722;23.268;2023-05-19T12:15:22;95214.22;;;20.52;53.31
42247;BME280;27913;42.722;23.268;2023-05-19T12:17:55;95232.13;;;19.88;55.90
42247;BME280;27913;42.722;23.268;2023-05-19T12:20:22;95228.22;;;19.32;58.33
42247;BME280;27913;42.722;23.268;2023-05-19T12:22:47;95178.19;;;18.57;64.40
42247;BME280;27913;42.722;23.268;2023-05-19T12:25:14;95269.75;;;18.56;72.13
42247;BME280;27913;42.722;23.268;2023-05-19T12:27:41;95251.31;;;17.75;73.95
42247;BME280;27913;42.722;23.268;2023-05-19T12:30:08;95259.44;;;17.31;77.43
42247;BME280;27913;42.722;23.268;2023-05-19T12:32:36;95238.44;;;16.48;79.01
42247;BME280;27913;42.722;23.268;2023-05-19T12:35:03;95258.91;;;16.40;80.55
42247;BME280;27913;42.722;23.268;2023-05-19T12:37:30;95244.72;;;16.28;78.56
42247;BME280;27913;42.722;23.268;2023-05-19T12:39:56;95248.81;;;16.24;77.96
42247;BME280;27913;42.722;23.268;2023-05-19T12:42:28;95227.25;;;15.88;79.42
42247;BME280;27913;42.722;23.268;2023-05-19T12:45:01;95229.63;;;15.96;79.05
42247;BME280;27913;42.722;23.268;2023-05-19T12:47:34;95222.25;;;16.05;78.34
42247;BME280;27913;42.722;23.268;2023-05-19T12:50:04;95167.72;;;15.84;77.50
42247;BME280;27913;42.722;23.268;2023-05-19T12:52:33;95227.28;;;16.39;75.93
42247;BME280;27913;42.722;23.268;2023-05-19T12:55:04;95167.56;;;16.29;75.18
42247;BME280;27913;42.722;23.268;2023-05-19T12:57:36;95205.34;;;16.69;73.98
42247;BME280;27913;42.722;23.268;2023-05-19T13:00:19;95188.59;;;16.87;72.76
42247;BME280;27913;42.722;23.268;2023-05-19T13:05:23;95211.97;;;17.35;68.09
42247;BME280;27913;42.722;23.268;2023-05-19T13:07:56;95189.75;;;17.29;66.93
42247;BME280;27913;42.722;23.268;2023-05-19T13:10:22;95160.00;;;17.20;66.11
42247;BME280;27913;42.722;23.268;2023-05-19T13:12:48;95179.56;;;17.57;64.32
42247;BME280;27913;42.722;23.268;2023-05-19T13:15:13;95211.31;;;17.94;63.14
42247;BME280;27913;42.722;23.268;2023-05-19T13:17:39;95217.59;;;18.12;62.51
42247;BME280;27913;42.722;23.268;2023-05-19T13:20:05;95191.72;;;18.19;61.27
42247;BME280;27913;42.722;23.268;2023-05-19T13:22:30;95211.88;;;18.63;60.33
42247;BME280;27913;42.722;23.268;2023-05-19T13:24:56;95211.94;;;18.80;59.92
42247;BME280;27913;42.722;23.268;2023-05-19T13:27:27;95190.63;;;18.80;58.81
42247;BME280;27913;42.722;23.268;2023-05-19T13:29:52;95208.53;;;19.09;58.63
42247;BME280;27913;42.722;23.268;2023-05-19T13:32:18;95117.03;;;18.62;57.96
42247;BME280;27913;42.722;23.268;2023-05-19T13:34:43;95174.41;;;18.94;56.53
42247;BME280;27913;42.722;23.268;2023-05-19T13:37:09;95201.69;;;19.25;55.94
42247;BME280;27913;42.722;23.268;2023-05-19T13:39:35;95178.28;;;19.27;57.48
42247;BME280;27913;42.722;23.268;2023-05-19T13:42:01;95201.94;;;19.53;56.29
42247;BME280;27913;42.722;23.268;2023-05-19T13:44:27;95208.16;;;19.59;53.26
42247;BME280;27913;42.722;23.268;2023-05-19T13:46:52;95202.34;;;19.62;51.46
42247;BME280;27913;42.722;23.268;2023-05-19T13:49:18;95198.63;;;19.63;51.35
42247;BME280;27913;42.722;23.268;2023-05-19T13:51:44;95201.94;;;19.70;52.86
42247;BME280;27913;42.722;23.268;2023-05-19T13:54:09;95199.53;;;19.68;53.44
42247;BME280;27913;42.722;23.268;2023-05-19T13:56:35;95159.47;;;19.34;53.64
42247;BME280;27913;42.722;23.268;2023-05-19T13:59:01;95160.59;;;19.38;53.07
42247;BME280;27913;42.722;23.268;2023-05-19T14:01:30;95165.47;;;19.41;54.21
42247;BME280;27913;42.722;23.268;2023-05-19T14:03:59;95128.00;;;19.19;54.10
42247;BME280;27913;42.722;23.268;2023-05-19T14:06:25;95202.09;;;19.63;54.58
42247;BME280;27913;42.722;23.268;2023-05-19T14:08:51;95191.44;;;19.63;56.44
42247;BME280;27913;42.722;23.268;2023-05-19T14:11:18;95177.44;;;19.56;54.97
42247;BME280;27913;42.722;23.268;2023-05-19T14:13:44;95186.84;;;19.76;53.70
42247;BME280;27913;42.722;23.268;2023-05-19T14:16:10;95175.19;;;19.65;54.15
42247;BME280;27913;42.722;23.268;2023-05-19T14:18:36;95204.88;;;19.86;54.10
42247;BME280;27913;42.722;23.268;2023-05-19T14:21:02;95183.69;;;19.79;52.12
42247;BME280;27913;42.722;23.268;2023-05-19T14:23:29;95156.59;;;19.87;51.85
42247;BME280;27913;42.722;23.268;2023-05-19T14:25:55;95191.16;;;20.46;51.24
42247;BME280;27913;42.722;23.268;2023-05-19T14:28:20;95150.06;;;20.47;48.25
42247;BME280;27913;42.722;23.268;2023-05-19T14:30:46;95138.06;;;20.49;47.95
42247;BME280;27913;42.722;23.268;2023-05-19T14:33:11;95125.94;;;20.42;47.85
42247;BME280;27913;42.722;23.268;2023-05-19T14:35:37;95176.78;;;20.69;47.17
42247;BME280;27913;42.722;23.268;2023-05-19T14:38:05;95197.47;;;20.79;47.16
42247;BME280;27913;42.722;23.268;2023-05-19T14:40:31;95196.44;;;20.80;47.12
42247;BME280;27913;42.722;23.268;2023-05-19T14:42:56;95128.44;;;20.31;46.45
42247;BME280;27913;42.722;23.268;2023-05-19T14:45:22;95185.94;;;20.56;46.12
42247;BME280;27913;42.722;23.268;2023-05-19T14:47:48;95179.44;;;20.69;46.39
42247;BME280;27913;42.722;23.268;2023-05-19T14:50:13;95215.63;;;20.94;46.08
42247;BME280;27913;42.722;23.268;2023-05-19T14:52:38;95209.78;;;20.97;46.48
42247;BME280;27913;42.722;23.268;2023-05-19T14:55:04;95211.28;;;20.93;46.75
42247;BME280;27913;42.722;23.268;2023-05-19T14:57:30;95216.16;;;20.96;46.20
42247;BME280;27913;42.722;23.268;2023-05-19T14:59:55;95216.81;;;21.31;46.16
42247;BME280;27913;42.722;23.268;2023-05-19T15:02:21;95210.59;;;21.48;46.10
42247;BME280;27913;42.722;23.268;2023-05-19T15:04:46;95217.03;;;22.02;45.10
42247;BME280;27913;42.722;23.268;2023-05-19T15:07:12;95161.63;;;21.47;43.82
42247;BME280;27913;42.722;23.268;2023-05-19T15:09:39;95216.84;;;21.81;43.95
42247;BME280;27913;42.722;23.268;2023-05-19T15:12:04;95195.56;;;21.97;43.66
42247;BME280;27913;42.722;23.268;2023-05-19T15:14:30;95188.91;;;22.38;42.34
42247;BME280;27913;42.722;23.268;2023-05-19T15:16:55;95161.22;;;22.65;42.08
42247;BME280;27913;42.722;23.268;2023-05-19T15:19:21;95213.31;;;23.44;42.79
42247;BME280;27913;42.722;23.268;2023-05-19T15:21:46;95187.06;;;23.67;41.19
42247;BME280;27913;42.722;23.268;2023-05-19T15:25:00;95140.34;;;23.47;40.97
42247;BME280;27913;42.722;23.268;2023-05-19T15:27:26;95187.63;;;23.89;40.41
42247;BME280;27913;42.722;23.268;2023-05-19T15:29:51;95142.00;;;23.89;39.74
42247;BME280;27913;42.722;23.268;2023-05-19T15:32:17;95149.22;;;24.15;39.43
42247;BME280;27913;42.722;23.268;2023-05-19T15:34:42;95206.91;;;24.75;38.60
42247;BME280;27913;42.722;23.268;2023-05-19T15:37:08;95209.06;;;24.73;38.24
42247;BME280;27913;42.722;23.268;2023-05-19T15:39:33;95208.75;;;24.95;38.54
42247;BME280;27913;42.722;23.268;2023-05-19T15:41:59;95196.16;;;24.80;37.89
42247;BME280;27913;42.722;23.268;2023-05-19T15:44:24;95212.31;;;24.70;38.39
42247;BME280;27913;42.722;23.268;2023-05-19T15:46:50;95217.44;;;24.09;39.48
42247;BME280;27913;42.722;23.268;2023-05-19T15:49:16;95221.16;;;23.76;40.51
42247;BME280;27913;42.722;23.268;2023-05-19T15:51:42;95209.81;;;23.43;40.68
42247;BME280;27913;42.722;23.268;2023-05-19T15:54:08;95190.41;;;23.15;41.06
42247;BME280;27913;42.722;23.268;2023-05-19T15:56:34;95149.50;;;22.76;41.11
42247;BME280;27913;42.722;23.268;2023-05-19T15:59:00;95175.88;;;22.52;40.83
42247;BME280;27913;42.722;23.268;2023-05-19T16:01:25;95188.31;;;22.68;41.19
42247;BME280;27913;42.722;23.268;2023-05-19T16:03:51;95222.47;;;22.89;41.53
42247;BME280;27913;42.722;23.268;2023-05-19T16:06:16;95175.44;;;22.65;42.01
42247;BME280;27913;42.722;23.268;2023-05-19T16:08:42;95225.03;;;22.68;41.86
42247;BME280;27913;42.722;23.268;2023-05-19T16:11:07;95189.84;;;22.21;43.25
42247;BME280;27913;42.722;23.268;2023-05-19T16:13:32;95221.34;;;22.03;44.37
42247;BME280;27913;42.722;23.268;2023-05-19T16:15:58;95218.69;;;21.81;45.34
42247;BME280;27913;42.722;23.268;2023-05-19T16:18:24;95218.88;;;21.46;46.90
42247;BME280;27913;42.722;23.268;2023-05-19T16:20:50;95180.53;;;21.13;47.43
42247;BME280;27913;42.722;23.268;2023-05-19T16:23:15;95191.59;;;21.22;47.72
42247;BME280;27913;42.722;23.268;2023-05-19T16:25:41;95224.69;;;21.66;47.65
42247;BME280;27913;42.722;23.268;2023-05-19T16:28:06;95131.56;;;21.07;47.73
42247;BME280;27913;42.722;23.268;2023-05-19T16:30:32;95163.59;;;21.30;47.69
42247;BME280;27913;42.722;23.268;2023-05-19T16:32:57;95223.28;;;21.58;47.84
42247;BME280;27913;42.722;23.268;2023-05-19T16:35:22;95222.84;;;21.44;48.03
42247;BME280;27913;42.722;23.268;2023-05-19T16:37:48;95205.66;;;21.12;48.56
42247;BME280;27913;42.722;23.268;2023-05-19T16:40:13;95160.56;;;20.76;49.04
42247;BME280;27913;42.722;23.268;2023-05-19T16:42:39;95233.81;;;21.20;48.78
42247;BME280;27913;42.722;23.268;2023-05-19T16:45:05;95223.88;;;21.15;49.03
42247;BME280;27913;42.722;23.268;2023-05-19T16:47:31;95217.09;;;21.07;48.71
42247;BME280;27913;42.722;23.268;2023-05-19T16:49:56;95202.69;;;20.91;49.15
42247;BME280;27913;42.722;23.268;2023-05-19T16:52:22;95207.50;;;20.89;49.12
42247;BME280;27913;42.722;23.268;2023-05-19T16:54:47;95233.25;;;20.95;49.91
42247;BME280;27913;42.722;23.268;2023-05-19T16:57:45;95174.47;;;20.38;50.58
42247;BME280;27913;42.722;23.268;2023-05-19T17:00:11;95188.84;;;20.15;50.99
42247;BME280;27913;42.722;23.268;2023-05-19T17:02:37;95195.84;;;20.04;52.06
42247;BME280;27913;42.722;23.268;2023-05-19T17:05:03;95237.94;;;20.14;53.02
42247;BME280;27913;42.722;23.268;2023-05-19T17:07:28;95232.13;;;19.88;55.04
42247;BME280;27913;42.722;23.268;2023-05-19T17:09:55;95174.66;;;19.34;55.95
42247;BME280;27913;42.722;23.268;2023-05-19T17:12:20;95220.00;;;19.51;56.89
42247;BME280;27913;42.722;23.268;2023-05-19T17:14:46;95150.44;;;18.82;58.36
42247;BME280;27913;42.722;23.268;2023-05-19T17:17:11;95243.03;;;19.28;59.13
42247;BME280;27913;42.722;23.268;2023-05-19T17:19:37;95246.44;;;19.23;59.55
42247;BME280;27913;42.722;23.268;2023-05-19T17:22:05;95250.03;;;19.17;60.04
42247;BME280;27913;42.722;23.268;2023-05-19T17:24:31;95207.56;;;18.86;60.23
42247;BME280;27913;42.722;23.268;2023-05-19T17:26:59;95242.59;;;19.07;61.06
42247;BME280;27913;42.722;23.268;2023-05-19T17:29:24;95239.03;;;18.89;61.36
42247;BME280;27913;42.722;23.268;2023-05-19T17:31:52;95169.97;;;18.34;62.36
42247;BME280;27913;42.722;23.268;2023-05-19T17:34:19;95213.72;;;18.51;62.79
42247;BME280;27913;42.722;23.268;2023-05-19T17:36:45;95253.41;;;18.64;62.93
42247;BME280;27913;42.722;23.268;2023-05-19T17:39:10;95255.41;;;18.57;63.11
42247;BME280;27913;42.722;23.268;2023-05-19T17:41:36;95259.34;;;18.42;63.31
42247;BME280;27913;42.722;23.268;2023-05-19T17:44:02;95258.41;;;18.37;63.80
42247;BME280;27913;42.722;23.268;2023-05-19T17:46:28;95268.09;;;18.31;63.84
42247;BME280;27913;42.722;23.268;2023-05-19T17:49:01;95255.47;;;18.14;64.67
42247;BME280;27913;42.722;23.268;2023-05-19T17:51:27;95216.38;;;17.72;64.55
42247;BME280;27913;42.722;23.268;2023-05-19T17:53:53;95265.13;;;17.96;64.89
42247;BME280;27913;42.722;23.268;2023-05-19T17:56:19;95223.50;;;17.59;64.13
42247;BME280;27913;42.722;23.268;2023-05-19T17:58:47;95247.56;;;17.65;63.91
42247;BME280;27913;42.722;23.268;2023-05-19T18:01:14;95160.84;;;17.02;61.47
42247;BME280;27913;42.722;23.268;2023-05-19T18:03:40;95269.06;;;17.63;61.52
42247;BME280;27913;42.722;23.268;2023-05-19T18:06:07;95271.34;;;17.59;60.82
42247;BME280;27913;42.722;23.268;2023-05-19T18:08:33;95273.19;;;17.59;63.88
42247;BME280;27913;42.722;23.268;2023-05-19T18:10:59;95273.13;;;17.66;65.99
42247;BME280;27913;42.722;23.268;2023-05-19T18:13:24;95283.44;;;17.74;66.98
42247;BME280;27913;42.722;23.268;2023-05-19T18:15:50;95276.28;;;17.74;66.23
42247;BME280;27913;42.722;23.268;2023-05-19T18:18:16;95288.66;;;17.81;59.89
42247;BME280;27913;42.722;23.268;2023-05-19T18:20:42;95283.94;;;17.83;62.10
42247;BME280;27913;42.722;23.268;2023-05-19T18:23:09;95295.53;;;17.89;62.30
42247;BME280;27913;42.722;23.268;2023-05-19T18:25:35;95236.97;;;17.46;60.02
42247;BME280;27913;42.722;23.268;2023-05-19T18:28:02;95289.88;;;17.66;60.71
42247;BME280;27913;42.722;23.268;2023-05-19T18:30:28;95266.75;;;17.36;59.99
42247;BME280;27913;42.722;23.268;2023-05-19T18:32:53;95306.81;;;17.53;61.64
42247;BME280;27913;42.722;23.268;2023-05-19T18:35:19;95311.63;;;17.44;61.78
42247;BME280;27913;42.722;23.268;2023-05-19T18:37:45;95309.63;;;17.39;63.37
42247;BME280;27913;42.722;23.268;2023-05-19T18:40:13;95307.28;;;17.31;61.94
42247;BME280;27913;42.722;23.268;2023-05-19T18:42:38;95315.25;;;17.31;62.95
42247;BME280;27913;42.722;23.268;2023-05-19T18:45:09;95311.47;;;17.20;63.20
42247;BME280;27913;42.722;23.268;2023-05-19T18:47:37;95324.13;;;17.25;63.93
42247;BME280;27913;42.722;23.268;2023-05-19T18:50:03;95299.13;;;17.07;62.73
42247;BME280;27913;42.722;23.268;2023-05-19T18:52:28;95315.84;;;17.14;63.31
42247;BME280;27913;42.722;23.268;2023-05-19T18:54:55;95321.81;;;17.10;61.46
42247;BME280;27913;42.722;23.268;2023-05-19T18:57:21;95332.25;;;17.05;61.38
42247;BME280;27913;42.722;23.268;2023-05-19T18:59:47;95275.03;;;16.64;62.51
42247;BME280;27913;42.722;23.268;2023-05-19T19:02:13;95331.72;;;16.96;63.79
42247;BME280;27913;42.722;23.268;2023-05-19T19:04:39;95337.09;;;16.89;63.41